Tiempo atmosférico en la estación meteorológica de Beasain, Gipuzkoa (245 m.)

Fecha
DESCASC
Temp. máxima en grados centígrados (hora)
DESCASC
Temp. mínima en grados centígrados (hora)
DESCASC
Temp. media en grados centígrados
DESCASC
Racha de viento máxima en m/sg (hora)
DESCASC
Velocidad máxima media en intervalos de 10 minutos(hora)
DESCASC
Precipitaciones diarias en mm
DESCASC
Precipitaciones de 00:00 a 06:00 en mm
DESCASC
Precipitaciones de 06:00 a 12:00 en mm
DESCASC
Precipitaciones de 12:00 a 18:00 en mm
DESCASC
Precipitaciones de 18:00 a 24:00 en mm
DESCASC
17-08-2017 29.8 (15:10) 12.9 (08:00) 21.3 8.33 (16:50) 4.72 (16:40) 0 0 0 0 0
16-08-2017 26.2 (17:10) 16.8 (23:59) 21.5 8.61 (17:40) 3.89 (17:40) 0.2 0.2 0 0 0
15-08-2017 23.4 (14:00) 17.8 (00:00) 20.6 8.06 (15:40) 4.72 (15:50) 0 0 0 0 0
14-08-2017 36 (17:40) 14.5 (07:00) 25.3 12.5 (20:40) 8.33 (20:40) 0 0 0 0 0
13-08-2017 26.5 (14:40) 13.3 (00:00) 19.9 8.06 (18:10) 4.72 (17:30) 0 0 0 0 0
12-08-2017 25.6 (15:20) 9 (00:00) 17.3 8.61 (17:40) 4.17 (16:40) 0 0 0 0 0
11-08-2017 21.3 (16:00) 9.4 (00:00) 15.3 10.83 (15:10) 4.72 (17:20) 0 0 0 0 0
10-08-2017 17.5 (15:20) 11.4 (00:00) 14.4 9.72 (16:00) 5 (16:00) 4 0.6 2.2 1.2 0
09-08-2017 18.6 (18:00) 12.4 (00:00) 15.5 10 (16:20) 4.44 (16:00) 4.2 0 1.2 1.2 1.8
08-08-2017 18.9 (17:40) 13.3 (00:00) 16.1 10.28 (13:40) 5.28 (13:40) 4.4 1.4 0.2 2.8 0
07-08-2017 28 (14:20) 15.1 (00:00) 21.6 9.44 (16:00) 5.28 (17:10) 0.6 0 0 0 0.6
06-08-2017 21.5 (16:00) 16 (00:00) 18.8 7.5 (14:00) 3.89 (13:40) 0 0 0 0 0
05-08-2017 20.8 (10:30) 16.5 (00:00) 18.6 8.33 (16:40) 3.89 (16:20) 0 0 0 0 0
04-08-2017 30.9 (14:30) 18.2 (00:00) 24.6 8.61 (17:30) 4.17 (17:30) 0 0 0 0 0
03-08-2017 29.4 (14:30) 19 (00:00) 24.2 8.33 (17:00) 5 (17:20) 0 0 0 0 0
02-08-2017 30.8 (15:50) 16.5 (00:00) 23.6 9.72 (18:40) 5 (17:00) 0 0 0 0 0
01-08-2017 20.9 (16:50) 16.7 (00:00) 18.8 4.44 (22:50) 2.5 (15:50) 0.4 0 0.4 0 0
31-07-2017 20.4 (15:20) 16.4 (00:00) 18.4 6.94 (19:40) 3.33 (18:30) 0 0 0 0 0
30-07-2017 25.6 (13:50) 14.4 (00:00) 20 8.89 (18:40) 5 (14:30) 0 0 0 0 0
29-07-2017 31.2 (15:00) 17.9 (00:00) 24.6 8.06 (16:10) 4.72 (16:10) 0 0 0 0 0
28-07-2017 27.3 (16:30) 18.5 (00:00) 22.9 7.78 (17:40) 3.61 (18:40) 0 0 0 0 0
27-07-2017 29.3 (15:50) 14 (00:00) 21.6 8.33 (17:30) 4.72 (17:30) 0 0 0 0 0
26-07-2017 26.1 (18:30) 12 (00:00) 19.1 5.83 (19:10) 3.33 (19:00) 0 0 0 0 0
25-07-2017 19.2 (13:40) 13.4 (00:00) 16.3 7.78 (14:00) 5 (14:10) 0 0 0 0 0
24-07-2017 20.4 (16:40) 15.6 (00:00) 18 8.33 (16:50) 3.89 (16:50) 7.2 0.6 1.8 2.4 2.4
23-07-2017 24.2 (15:50) 15 (00:00) 19.6 7.78 (18:10) 4.44 (18:10) 0 0 0 0 0
22-07-2017 25.4 (14:30) 13.5 (00:00) 19.4 8.89 (17:10) 5 (16:30) 0 0 0 0 0
21-07-2017 20.2 (15:00) 14.8 (00:00) 17.5 5.28 (17:10) 2.5 (15:20) 0.2 0.2 0 0 0
20-07-2017 19.6 (00:00) 15.4 (00:00) 17.5 7.78 (16:30) 3.89 (16:10) 0.6 0.4 0.2 0 0
19-07-2017 25.4 (14:20) 17.6 (00:00) 21.5 8.61 (15:30) 4.72 (14:40) 0 0 0 0 0

Gráficas

Temp. máximas Temp. mínimas Temp. medias Precipitaciones Rachas de viento máximas Velocidades máximas media en intervalos de 10 minutos

Datos horarios

Fecha y hora oficial Temperatura (ºC) Velocidad del viento (km/h) Dirección del viento Racha (km/h) Dirección de racha Precipitación (mm) Presión (hPa) Tendencia (hPa) Humedad (%)
2017-08-17 23:00:00 19.9 0 Calma 4 Norte 0 -- -- 81
2017-08-17 22:00:00 21.1 0 Calma 6 Norte 0 -- -- 77
2017-08-17 21:00:00 23.1 0 Calma 6 Noroeste 0 -- -- 70
2017-08-17 20:00:00 26.5 3 Sur 19 Oeste 0 -- -- 57
2017-08-17 19:00:00 26.4 10 Noroeste 24 Noroeste 0 -- -- 58
2017-08-17 18:00:00 27.6 12 Noroeste 26 Nordeste 0 -- -- 54
2017-08-17 17:00:00 28.5 13 Norte 30 Noroeste 0 -- -- 53
2017-08-17 16:00:00 29 10 Noroeste 22 Noroeste 0 -- -- 52
2017-08-17 15:00:00 29.5 8 Sur 17 Sur 0 -- -- 43
2017-08-17 14:00:00 27.9 6 Sur 15 Sudeste 0 -- -- 43
2017-08-17 13:00:00 25.6 5 Sudeste 13 Sudoeste 0 -- -- 51
2017-08-17 12:00:00 23.6 5 Sur 10 Sudeste 0 -- -- 51
2017-08-17 11:00:00 20.4 3 Sur 6 Este 0 -- -- 61
2017-08-17 10:00:00 15.8 0 Calma 4 Norte 0 -- -- 95
2017-08-17 09:00:00 13.5 2 Sur 5 Sur 0 -- -- 100
2017-08-17 08:00:00 12.9 3 Sudeste 8 Sudeste 0 -- -- 100
2017-08-17 07:00:00 13.6 3 Nordeste 9 Sudeste 0 -- -- 100
2017-08-17 06:00:00 13.8 3 Sudeste 6 Sudeste 0 -- -- 99
2017-08-17 05:00:00 14 0 Calma 8 Sudeste 0 -- -- 99
2017-08-17 04:00:00 14.4 0 Calma 5 Norte 0 -- -- 99
2017-08-17 03:00:00 14.5 2 Sudeste 8 Este 0 -- -- 98
2017-08-17 02:00:00 15.2 0 Calma 4 Noroeste 0 -- -- 97
2017-08-17 01:00:00 15.9 0 Calma 4 Este 0 -- -- 96
2017-08-17 00:00:00 16.8 0 Calma 4 Noroeste 0 -- -- 93
2017-08-16 23:00:00 18 2 Norte 4 Noroeste 0 -- -- 89
2017-08-16 22:00:00 19.4 3 Norte 12 Norte 0 -- -- 85
2017-08-16 21:00:00 21 9 Norte 14 Norte 0 -- -- 78
2017-08-16 20:00:00 23.1 6 Noroeste 17 Norte 0 -- -- 70
2017-08-16 19:00:00 25.1 10 Noroeste 22 Noroeste 0 -- -- 62
2017-08-16 18:00:00 25.1 13 Norte 31 Norte 0 -- -- 61
2017-08-16 17:00:00 25.8 4 Sudeste 15 Sudoeste 0 -- -- 62
2017-08-16 16:00:00 24.2 6 Sur 18 Sur 0 -- -- 70
2017-08-16 15:00:00 22.8 5 Sudeste 13 Sur 0 -- -- 76
2017-08-16 14:00:00 21.6 7 Nordeste 19 Norte 0 -- -- 79
2017-08-16 13:00:00 21.2 4 Sudeste 12 Sur 0 -- -- 81
2017-08-16 12:00:00 20.3 4 Sudeste 10 Sudeste 0 -- -- 86
2017-08-16 11:00:00 19.1 4 Sudeste 7 Este 0 -- -- 93
2017-08-16 10:00:00 18.3 3 Sudeste 5 Sudeste 0 -- -- 97
2017-08-16 09:00:00 17.6 0 Calma 3 Sudeste 0 -- -- 99
2017-08-16 08:00:00 17.4 2 Sudeste 4 Sudeste 0 -- -- 100
2017-08-16 07:00:00 17.4 0 Calma 3 Sudeste 0 -- -- 100
2017-08-16 06:00:00 17.3 0 Calma 3 Sudeste 0 -- -- 99
2017-08-16 05:00:00 17.3 0 Calma 4 Este 0 -- -- 99
2017-08-16 04:00:00 17.5 0 Calma 2 Sur 0.2 -- -- 98
2017-08-16 03:00:00 17.6 0 Calma 8 Sudeste 0 -- -- 98
2017-08-16 02:00:00 18 3 Sur 8 Sudeste 0 -- -- 96
2017-08-16 01:00:00 18.2 3 Norte 8 Norte 0 -- -- 93
2017-08-16 00:00:00 18.4 5 Norte 10 Noroeste 0 -- -- 91
2017-08-15 23:00:00 18.5 6 Noroeste 12 Norte 0 -- -- 90
2017-08-15 22:00:00 18.8 5 Norte 12 Norte 0 -- -- 89
2017-08-15 21:00:00 18.9 5 Norte 13 Norte 0 -- -- 88
2017-08-15 20:00:00 18.9 6 Norte 14 Noroeste 0 -- -- 87
2017-08-15 19:00:00 19.1 8 Norte 20 Norte 0 -- -- 86
2017-08-15 18:00:00 19.5 11 Norte 19 Norte 0 -- -- 84
2017-08-15 17:00:00 19.6 14 Norte 26 Norte 0 -- -- 84
2017-08-15 16:00:00 20.4 14 Norte 29 Norte 0 -- -- 80
2017-08-15 15:00:00 22.3 13 Norte 28 Noroeste 0 -- -- 75
2017-08-15 14:00:00 23.4 10 Noroeste 20 Noroeste 0 -- -- 71
2017-08-15 13:00:00 22.8 5 Noroeste 15 Norte 0 -- -- 74
2017-08-15 12:00:00 22.8 6 Sur 15 Sur 0 -- -- 76
2017-08-15 11:00:00 21.6 4 Sur 10 Este 0 -- -- 81
2017-08-15 10:00:00 19.6 5 Nordeste 11 Este 0 -- -- 87
2017-08-15 09:00:00 18.6 4 Nordeste 9 Este 0 -- -- 92
2017-08-15 08:00:00 17.9 4 Sur 9 Nordeste 0 -- -- 94
2017-08-15 07:00:00 17.9 4 Sudeste 7 Sudeste 0 -- -- 92
2017-08-15 06:00:00 18 2 Nordeste 12 Norte 0 -- -- 91
2017-08-15 05:00:00 17.8 6 Norte 9 Este 0 -- -- 93
2017-08-15 04:00:00 18.3 0 Calma 7 Noroeste 0 -- -- 90
2017-08-15 03:00:00 19.1 3 Norte 6 Noroeste 0 -- -- 86
2017-08-15 02:00:00 19.8 4 Sudeste 6 Este 0 -- -- 83
2017-08-15 01:00:00 20.8 2 Sur 12 Este 0 -- -- 78
2017-08-15 00:00:00 21.9 4 Noroeste 10 Nordeste 0 -- -- 73
2017-08-14 23:00:00 23 6 Norte 13 Noroeste 0 -- -- 66
2017-08-14 22:00:00 23.9 7 Norte 30 Noroeste 0 -- -- 63
2017-08-14 21:00:00 25.8 26 Noroeste 45 Noroeste 0 -- -- 56
2017-08-14 20:00:00 34 6 Oeste 28 Sudeste 0 -- -- 35
2017-08-14 19:00:00 35.2 9 Sudeste 26 Sudeste 0 -- -- 30
2017-08-14 18:00:00 35.5 17 Sudeste 27 Sudeste 0 -- -- 29
2017-08-14 17:00:00 35.5 11 Sur 26 Sudoeste 0 -- -- 31
2017-08-14 16:00:00 34.9 13 Sudeste 32 Sudeste 0 -- -- 30
2017-08-14 15:00:00 34.1 13 Sudeste 32 Sudeste 0 -- -- 33
2017-08-14 14:00:00 32.4 14 Sur 32 Sudeste 0 -- -- 34
2017-08-14 13:00:00 30.6 15 Sudeste 36 Sudeste 0 -- -- 37
2017-08-14 12:00:00 29.2 15 Sur 38 Sudeste 0 -- -- 39
2017-08-14 11:00:00 27.4 22 Sudeste 41 Sudeste 0 -- -- 41
2017-08-14 10:00:00 25.8 13 Sur 37 Sudeste 0 -- -- 50
2017-08-14 09:00:00 21 9 Sur 22 Sur 0 -- -- 70
2017-08-14 08:00:00 15.5 3 Norte 15 Sudeste 0 -- -- 99
2017-08-14 07:00:00 14.5 4 Sudeste 9 Este 0 -- -- 99
2017-08-14 06:00:00 14.7 3 Noroeste 6 Este 0 -- -- 98
2017-08-14 05:00:00 15.3 0 Calma 4 Noroeste 0 -- -- 98
2017-08-14 04:00:00 15.3 0 Calma 3 Noroeste 0 -- -- 98
2017-08-14 03:00:00 15.6 0 Calma 4 Sudeste 0 -- -- 97
2017-08-14 02:00:00 15.8 0 Calma 5 Noroeste 0 -- -- 96
2017-08-14 01:00:00 16.6 0 Calma 5 Norte 0 -- -- 94
2017-08-14 00:00:00 17.5 2 Norte 5 Norte 0 -- -- 92
2017-08-13 23:00:00 18.3 2 Norte 4 Noroeste 0 -- -- 89
2017-08-13 22:00:00 19.8 0 Calma 10 Sur 0 -- -- 84
2017-08-13 21:00:00 21.4 4 Noroeste 18 Norte 0 -- -- 78
2017-08-13 20:00:00 23.6 10 Noroeste 24 Norte 0 -- -- 69
2017-08-13 19:00:00 24.8 13 Norte 29 Noroeste 0 -- -- 65
2017-08-13 18:00:00 25.3 15 Norte 27 Noroeste 0 -- -- 63
2017-08-13 17:00:00 26.2 10 Noroeste 27 Noroeste 0 -- -- 62
2017-08-13 16:00:00 26 10 Norte 23 Norte 0 -- -- 63
2017-08-13 15:00:00 26 8 Norte 19 Sudoeste 0 -- -- 60
2017-08-13 14:00:00 25.6 7 Sudoeste 18 Sudoeste 0 -- -- 58
2017-08-13 13:00:00 23.4 5 Oeste 12 Sudoeste 0 -- -- 63
2017-08-13 12:00:00 21.6 4 Oeste 12 Este 0 -- -- 68
2017-08-13 11:00:00 20.5 5 Sur 10 Sudeste 0 -- -- 72
2017-08-13 10:00:00 18 5 Sudeste 10 Este 0 -- -- 83
2017-08-13 09:00:00 16 0 Calma 4 Sudeste 0 -- -- 89
2017-08-13 08:00:00 14.6 0 Calma 3 Noroeste 0 -- -- 94
2017-08-13 07:00:00 14.7 0 Calma 5 Sudeste 0 -- -- 93
2017-08-13 06:00:00 14.5 0 Calma 2 Este 0 -- -- 93
2017-08-13 05:00:00 14.2 2 Sudeste 4 Este 0 -- -- 94
2017-08-13 04:00:00 13.8 2 Noroeste 6 Sudeste 0 -- -- 95
2017-08-13 03:00:00 13.4 4 Sudeste 9 Este 0 -- -- 95
2017-08-13 02:00:00 13.4 0 Calma 4 Noroeste 0 -- -- 97
2017-08-13 01:00:00 13.9 0 Calma 8 Noroeste 0 -- -- 94
2017-08-13 00:00:00 14.9 0 Calma 4 Norte 0 -- -- 91
2017-08-12 23:00:00 15.9 2 Norte 9 Noroeste 0 -- -- 86
2017-08-12 22:00:00 17.4 0 Calma 14 Norte 0 -- -- 80
2017-08-12 21:00:00 18.9 9 Noroeste 25 Norte 0 -- -- 73
2017-08-12 20:00:00 22.7 10 Norte 23 Noroeste 0 -- -- 58
2017-08-12 19:00:00 24.3 10 Norte 22 Noroeste 0 -- -- 53
2017-08-12 18:00:00 24.9 10 Noroeste 31 Noroeste 0 -- -- 58
2017-08-12 17:00:00 24.9 8 Norte 26 Noroeste 0 -- -- 57
2017-08-12 16:00:00 25.1 7 Norte 19 Noroeste 0 -- -- 54
2017-08-12 15:00:00 25.1 7 Sur 15 Sur 0 -- -- 48
2017-08-12 14:00:00 23.7 5 Sur 13 Sudeste 0 -- -- 49
2017-08-12 13:00:00 22 6 Sudoeste 14 Este 0 -- -- 57
2017-08-12 12:00:00 19.4 4 Sudeste 12 Sur 0 -- -- 65
2017-08-12 11:00:00 17.3 3 Sur 7 Sur 0 -- -- 75
2017-08-12 10:00:00 12.9 3 Sudeste 6 Este 0 -- -- 100
2017-08-12 09:00:00 9.7 2 Norte 8 Sudeste 0 -- -- 100
2017-08-12 08:00:00 9.2 4 Sudeste 7 Sudeste 0 -- -- 100
2017-08-12 07:00:00 9.1 0 Calma 6 Sudeste 0 -- -- 100
2017-08-12 06:00:00 9.1 0 Calma 5 Sudeste 0 -- -- 100
2017-08-12 05:00:00 9.7 0 Calma 8 Noroeste 0 -- -- 100
2017-08-12 04:00:00 9.7 2 Nordeste 7 Sudeste 0 -- -- 99
2017-08-12 03:00:00 10.2 3 Noroeste 5 Noroeste 0 -- -- 98
2017-08-12 02:00:00 10.7 0 Calma 3 Este 0 -- -- 97
2017-08-12 01:00:00 11.3 0 Calma 4 Noroeste 0 -- -- 96
2017-08-12 00:00:00 12 0 Calma 4 Noroeste 0 -- -- 93
2017-08-11 23:00:00 13.1 2 Noroeste 8 Norte 0 -- -- 89
2017-08-11 22:00:00 14.2 5 Norte 9 Noroeste 0 -- -- 86
2017-08-11 21:00:00 16.4 4 Norte 15 Norte 0 -- -- 76
2017-08-11 20:00:00 19.2 10 Noroeste 23 Norte 0 -- -- 64
2017-08-11 19:00:00 20 9 Noroeste 27 Norte 0 -- -- 62
2017-08-11 18:00:00 20.2 17 Norte 30 Noroeste 0 -- -- 61
2017-08-11 17:00:00 20.5 14 Norte 28 Norte 0 -- -- 62
2017-08-11 16:00:00 21.3 12 Norte 39 Noroeste 0 -- -- 56
2017-08-11 15:00:00 20.7 10 Norte 24 Norte 0 -- -- 60
2017-08-11 14:00:00 19.4 10 Norte 22 Norte 0 -- -- 58
2017-08-11 13:00:00 18.2 9 Norte 23 Noroeste 0 -- -- 64
2017-08-11 12:00:00 17.9 12 Norte 20 Norte 0 -- -- 63
2017-08-11 11:00:00 15.6 7 Noroeste 12 Noroeste 0 -- -- 81
2017-08-11 10:00:00 13.8 5 Sudeste 6 Sudeste 0 -- -- 99
2017-08-11 09:00:00 10.5 4 Sudeste 7 Sudeste 0 -- -- 100
2017-08-11 08:00:00 9.5 2 Sudeste 4 Sudeste 0 -- -- 100
2017-08-11 07:00:00 9.6 0 Calma 4 Norte 0 -- -- 100
2017-08-11 06:00:00 9.7 2 Sudeste 3 Norte 0 -- -- 100
2017-08-11 05:00:00 9.8 0 Calma 8 Sudeste 0 -- -- 100
2017-08-11 04:00:00 10.3 2 Sudeste 6 Sudeste 0 -- -- 100
2017-08-11 03:00:00 10.7 0 Calma 6 Sudeste 0 -- -- 100
2017-08-11 02:00:00 11.1 2 Noroeste 4 Noroeste 0 -- -- 100
2017-08-11 01:00:00 11.1 4 Noroeste 8 Este 0 -- -- 99
2017-08-11 00:00:00 11.4 3 Sudeste 6 Sudeste 0 -- -- 97
2017-08-10 23:00:00 12 4 Noroeste 13 Norte 0 -- -- 94
2017-08-10 22:00:00 13.3 8 Noroeste 16 Noroeste 0 -- -- 92
2017-08-10 21:00:00 15.2 3 Noroeste 6 Noroeste 0 -- -- 93
2017-08-10 20:00:00 17.2 5 Noroeste 15 Noroeste 0 -- -- 79
2017-08-10 19:00:00 16.4 4 Noroeste 19 Norte 0 -- -- 89
2017-08-10 18:00:00 15.9 4 Norte 18 Noroeste 1 -- -- 91
2017-08-10 17:00:00 15.3 3 Norte 22 Oeste 0.2 -- -- 93
2017-08-10 16:00:00 16.8 18 Noroeste 35 Noroeste 0 -- -- 84
2017-08-10 15:00:00 17.1 9 Noroeste 28 Norte 0 -- -- 82
2017-08-10 14:00:00 15.9 11 Noroeste 26 Noroeste 0 -- -- 92
2017-08-10 13:00:00 15.4 12 Noroeste 24 Oeste 0 -- -- 93
2017-08-10 12:00:00 14 10 Noroeste 24 Noroeste 1 -- -- 95
2017-08-10 11:00:00 14 8 Noroeste 22 Noroeste 1.2 -- -- 95
2017-08-10 10:00:00 14.7 8 Noroeste 24 Noroeste 0 -- -- 89
2017-08-10 09:00:00 13.3 7 Noroeste 13 Norte 0 -- -- 100
2017-08-10 08:00:00 12.1 2 Noroeste 7 Noroeste 0 -- -- 100
2017-08-10 07:00:00 11.9 0 Calma 7 Sudeste 0 -- -- 99
2017-08-10 06:00:00 12.3 2 Nordeste 15 Noroeste 0 -- -- 98
2017-08-10 05:00:00 12.5 4 Noroeste 14 Noroeste 0.2 -- -- 100
2017-08-10 04:00:00 12.2 0 Calma 6 Sur 0.2 -- -- 100
2017-08-10 03:00:00 12.4 0 Calma 8 Norte 0 -- -- 100
2017-08-10 02:00:00 12.3 0 Calma 6 Nordeste 0 -- -- 100
2017-08-10 01:00:00 12.6 0 Calma 4 Norte 0.2 -- -- 100
2017-08-10 00:00:00 12.5 2 Noroeste 6 Noroeste 0 -- -- 100
2017-08-09 23:00:00 12.4 2 Norte 6 Noroeste 0 -- -- 99
2017-08-09 22:00:00 13.2 0 Calma 9 Noroeste 1 -- -- 96
2017-08-09 21:00:00 14.2 4 Norte 10 Noroeste 0.2 -- -- 93
2017-08-09 20:00:00 15 5 Noroeste 34 Norte 0.6 -- -- 90
2017-08-09 19:00:00 17.7 9 Norte 33 Norte 0 -- -- 63
2017-08-09 18:00:00 18.6 11 Noroeste 30 Noroeste 0 -- -- 68
2017-08-09 17:00:00 17.1 6 Norte 36 Norte 0.2 -- -- 69
2017-08-09 16:00:00 17.6 16 Norte 32 Noroeste 0 -- -- 68
2017-08-09 15:00:00 17.8 4 Sudoeste 11 Sudeste 0 -- -- 75
2017-08-09 14:00:00 15.4 5 Sudeste 20 Noroeste 0.2 -- -- 90
2017-08-09 13:00:00 13.8 8 Noroeste 23 Noroeste 0.8 -- -- 92
2017-08-09 12:00:00 15.7 3 Noroeste 9 Sudoeste 0 -- -- 86
2017-08-09 11:00:00 14.1 5 Noroeste 21 Noroeste 0.8 -- -- 93
2017-08-09 10:00:00 13.8 6 Noroeste 10 Noroeste 0.4 -- -- 97
2017-08-09 09:00:00 13.6 5 Sudeste 8 Sudeste 0 -- -- 98
2017-08-09 08:00:00 13.3 3 Noroeste 6 Noroeste 0 -- -- 99
2017-08-09 07:00:00 13.3 0 Calma 4 Noroeste 0 -- -- 98
2017-08-09 06:00:00 13.2 0 Calma 10 Sudeste 0 -- -- 98
2017-08-09 05:00:00 13.2 4 Noroeste 9 Noroeste 0 -- -- 99
2017-08-09 04:00:00 13.2 3 Norte 8 Este 0 -- -- 98
2017-08-09 03:00:00 13.4 3 Norte 6 Norte 0 -- -- 97
2017-08-09 02:00:00 13.6 0 Calma 4 Sudoeste 0 -- -- 97
2017-08-09 01:00:00 13.7 0 Calma 4 Noroeste 0 -- -- 96
2017-08-09 00:00:00 13.4 3 Norte 6 Noroeste 0 -- -- 95
2017-08-08 23:00:00 13.7 3 Noroeste 6 Noroeste 0 -- -- 92
2017-08-08 22:00:00 15.3 3 Norte 5 Norte 0 -- -- 86
2017-08-08 21:00:00 16.7 2 Noroeste 6 Nordeste 0 -- -- 82
2017-08-08 20:00:00 17.6 3 Noroeste 8 Noroeste 0 -- -- 76
2017-08-08 19:00:00 17.8 4 Noroeste 15 Nordeste 0 -- -- 72
2017-08-08 18:00:00 18.7 7 Norte 16 Norte 0 -- -- 64
2017-08-08 17:00:00 17.7 3 Nordeste 17 Noroeste 0 -- -- 77
2017-08-08 16:00:00 15.8 10 Noroeste 31 Norte 0.8 -- -- 87
2017-08-08 15:00:00 18 10 Norte 22 Oeste 0 -- -- 79
2017-08-08 14:00:00 16.2 9 Noroeste 37 Norte 0.4 -- -- 90
2017-08-08 13:00:00 17.6 9 Noroeste 33 Noroeste 1.6 -- -- 86
2017-08-08 12:00:00 18 7 Noroeste 15 Noroeste 0 -- -- 79
2017-08-08 11:00:00 15.7 3 Noroeste 16 Noroeste 0.2 -- -- 93
2017-08-08 10:00:00 16 2 Noroeste 9 Norte 0 -- -- 86
2017-08-08 09:00:00 14.2 3 Noroeste 6 Norte 0 -- -- 97
2017-08-08 08:00:00 13.7 0 Calma 6 Noroeste 0 -- -- 98
2017-08-08 07:00:00 13.8 2 Nordeste 14 Noroeste 0 -- -- 96
2017-08-08 06:00:00 14.2 3 Noroeste 8 Noroeste 0 -- -- 97
2017-08-08 05:00:00 15.2 8 Noroeste 25 Noroeste 0.2 -- -- 89
2017-08-08 04:00:00 15.3 0 Calma 9 Noroeste 0 -- -- 97
2017-08-08 03:00:00 15.5 4 Oeste 17 Noroeste 0.2 -- -- 96
2017-08-08 02:00:00 16 8 Noroeste 19 Noroeste 0.2 -- -- 97
2017-08-08 01:00:00 16.6 9 Noroeste 15 Oeste 0.8 -- -- 97
2017-08-08 00:00:00 16.9 0 Calma 15 Nordeste 0.2 -- -- 96
2017-08-07 23:00:00 17.5 6 Norte 21 Norte 0.2 -- -- 90
2017-08-07 22:00:00 17.9 4 Noroeste 10 Noroeste 0 -- -- 96
2017-08-07 21:00:00 18.1 9 Noroeste 15 Norte 0.2 -- -- 95
2017-08-07 20:00:00 18.5 5 Noroeste 13 Norte 0 -- -- 95
2017-08-07 19:00:00 19.9 8 Norte 30 Norte 0 -- -- 83
2017-08-07 18:00:00 20.8 15 Norte 30 Norte 0 -- -- 79
2017-08-07 17:00:00 23.9 16 Norte 32 Norte 0 -- -- 72
2017-08-07 16:00:00 25.9 18 Norte 34 Noroeste 0 -- -- 66
2017-08-07 15:00:00 27.6 15 Norte 25 Norte 0 -- -- 61
2017-08-07 14:00:00 26.9 5 Sur 14 Sudeste 0 -- -- 60
2017-08-07 13:00:00 24.5 4 Sudeste 12 Sudeste 0 -- -- 63
2017-08-07 12:00:00 22.9 4 Sudoeste 13 Sudeste 0 -- -- 66
2017-08-07 11:00:00 20.5 4 Noroeste 8 Norte 0 -- -- 73
2017-08-07 10:00:00 18.8 3 Sudeste 6 Sudoeste 0 -- -- 79
2017-08-07 09:00:00 16.6 3 Sudeste 6 Sudeste 0 -- -- 90
2017-08-07 08:00:00 15.3 0 Calma 2 Este 0 -- -- 94
2017-08-07 07:00:00 15.2 0 Calma 3 Sudeste 0 -- -- 95
2017-08-07 06:00:00 15.1 0 Calma 3 Este 0 -- -- 94
2017-08-07 05:00:00 15.2 0 Calma 4 Noroeste 0 -- -- 93
2017-08-07 04:00:00 15.6 0 Calma 5 Norte 0 -- -- 90
2017-08-07 03:00:00 16.3 3 Noroeste 6 Norte 0 -- -- 88
2017-08-07 02:00:00 17.2 0 Calma 2 Noroeste 0 -- -- 84
2017-08-07 01:00:00 17.6 0 Calma 4 Nordeste 0 -- -- 83
2017-08-07 00:00:00 17.8 2 Norte 6 Nordeste 0 -- -- 81
2017-08-06 23:00:00 18 4 Norte 10 Norte 0 -- -- 80
2017-08-06 22:00:00 18.2 4 Norte 14 Norte 0 -- -- 78
2017-08-06 21:00:00 18.4 6 Norte 17 Norte 0 -- -- 76
2017-08-06 20:00:00 18.7 9 Norte 20 Norte 0 -- -- 75
2017-08-06 19:00:00 19.1 11 Norte 23 Norte 0 -- -- 73
2017-08-06 18:00:00 19.8 12 Norte 26 Noroeste 0 -- -- 70
2017-08-06 17:00:00 20.6 10 Norte 24 Noroeste 0 -- -- 64
2017-08-06 16:00:00 21.5 14 Noroeste 26 Noroeste 0 -- -- 61
2017-08-06 15:00:00 21.1 11 Noroeste 25 Noroeste 0 -- -- 62
2017-08-06 14:00:00 20.7 14 Noroeste 27 Noroeste 0 -- -- 63
2017-08-06 13:00:00 20.6 10 Noroeste 21 Noroeste 0 -- -- 64
2017-08-06 12:00:00 19.4 8 Norte 17 Noroeste 0 -- -- 66
2017-08-06 11:00:00 19.1 5 Nordeste 15 Norte 0 -- -- 65
2017-08-06 10:00:00 17.4 4 Norte 14 Norte 0 -- -- 76
2017-08-06 09:00:00 16.5 4 Norte 8 Norte 0 -- -- 83
2017-08-06 08:00:00 16.1 4 Norte 7 Norte 0 -- -- 85
2017-08-06 07:00:00 16.1 5 Noroeste 8 Noroeste 0 -- -- 86
2017-08-06 06:00:00 16.1 3 Norte 8 Norte 0 -- -- 86
2017-08-06 05:00:00 16.2 4 Norte 8 Norte 0 -- -- 87
2017-08-06 04:00:00 16.5 4 Norte 12 Noroeste 0 -- -- 85
2017-08-06 03:00:00 16.4 5 Norte 12 Norte 0 -- -- 88
2017-08-06 02:00:00 16.3 0 Calma 6 Este 0 -- -- 96
2017-08-06 01:00:00 16.4 2 Nordeste 11 Noroeste 0 -- -- 95
2017-08-06 00:00:00 16.5 6 Noroeste 15 Noroeste 0 -- -- 92
2017-08-05 23:00:00 16.9 6 Norte 12 Norte 0 -- -- 89
2017-08-05 22:00:00 16.9 6 Norte 15 Noroeste 0 -- -- 89
2017-08-05 21:00:00 17.6 4 Noroeste 10 Norte 0 -- -- 82
2017-08-05 20:00:00 17.7 5 Noroeste 22 Norte 0 -- -- 83
2017-08-05 19:00:00 17.8 9 Noroeste 17 Norte 0 -- -- 87
2017-08-05 18:00:00 18.5 11 Norte 22 Norte 0 -- -- 81
2017-08-05 17:00:00 18.8 12 Norte 30 Norte 0 -- -- 83
2017-08-05 16:00:00 19.7 9 Norte 21 Noroeste 0 -- -- 82
2017-08-05 15:00:00 20.1 5 Norte 19 Norte 0 -- -- 83
2017-08-05 14:00:00 20.3 9 Norte 22 Noroeste 0 -- -- 81
2017-08-05 13:00:00 20 8 Noroeste 18 Noroeste 0 -- -- 86
2017-08-05 12:00:00 20.4 10 Noroeste 22 Noroeste 0 -- -- 86
2017-08-05 11:00:00 20.5 10 Noroeste 21 Noroeste 0 -- -- 90
2017-08-05 10:00:00 20.5 6 Noroeste 26 Norte 0 -- -- 90
2017-08-05 09:00:00 20.4 7 Norte 15 Norte 0 -- -- 93
2017-08-05 08:00:00 19.9 2 Noroeste 5 Noroeste 0 -- -- 96
2017-08-05 07:00:00 20.1 0 Calma 2 Sudeste 0 -- -- 92
2017-08-05 06:00:00 20 0 Calma 4 Este 0 -- -- 91
2017-08-05 05:00:00 19.9 0 Calma 4 Norte 0 -- -- 91
2017-08-05 04:00:00 19.7 0 Calma 3 Este 0 -- -- 91
2017-08-05 03:00:00 19.4 0 Calma 6 Sudeste 0 -- -- 92
2017-08-05 02:00:00 19.2 3 Sudeste 6 Este 0 -- -- 92
2017-08-05 01:00:00 19.9 3 Noroeste 4 Noroeste 0 -- -- 89
2017-08-05 00:00:00 20.7 0 Calma 6 Noroeste 0 -- -- 85
2017-08-04 23:00:00 21.8 5 Noroeste 11 Norte 0 -- -- 81
2017-08-04 22:00:00 23.3 6 Norte 12 Norte 0 -- -- 74
2017-08-04 21:00:00 25.1 8 Norte 17 Nordeste 0 -- -- 68
2017-08-04 20:00:00 27.7 10 Noroeste 27 Norte 0 -- -- 59
2017-08-04 19:00:00 28.7 10 Norte 28 Noroeste 0 -- -- 57
2017-08-04 18:00:00 29.5 12 Norte 31 Norte 0 -- -- 57
2017-08-04 17:00:00 30.1 14 Noroeste 27 Noroeste 0 -- -- 55
2017-08-04 16:00:00 29.7 4 Sudoeste 19 Sudeste 0 -- -- 56
2017-08-04 15:00:00 30.1 6 Noroeste 21 Sur 0 -- -- 56
2017-08-04 14:00:00 30.6 7 Oeste 13 Oeste 0 -- -- 51
2017-08-04 13:00:00 29.1 5 Noroeste 12 Noroeste 0 -- -- 56
2017-08-04 12:00:00 27.5 4 Este 12 Nordeste 0 -- -- 59
2017-08-04 11:00:00 25.3 4 Este 8 Sur 0 -- -- 69
2017-08-04 10:00:00 23.3 4 Sudeste 8 Sur 0 -- -- 78
2017-08-04 09:00:00 20.7 0 Calma 3 Este 0 -- -- 89
2017-08-04 08:00:00 18.7 0 Calma 4 Noroeste 0 -- -- 95
2017-08-04 07:00:00 18.2 3 Norte 5 Noroeste 0 -- -- 96
2017-08-04 06:00:00 18.6 3 Norte 9 Noroeste 0 -- -- 95
2017-08-04 05:00:00 19.7 0 Calma 5 Norte 0 -- -- 92
2017-08-04 04:00:00 20.4 0 Calma 2 Sudeste 0 -- -- 90
2017-08-04 03:00:00 20.5 0 Calma 5 Norte 0 -- -- 89
2017-08-04 02:00:00 20.6 3 Noroeste 9 Norte 0 -- -- 88
2017-08-04 01:00:00 20.7 6 Norte 17 Norte 0 -- -- 89
2017-08-04 00:00:00 20.9 7 Norte 15 Norte 0 -- -- 88
2017-08-03 23:00:00 21.1 7 Norte 18 Norte 0 -- -- 88
2017-08-03 22:00:00 21.6 14 Norte 26 Norte 0 -- -- 84
2017-08-03 21:00:00 22.7 14 Norte 27 Norte 0 -- -- 78
2017-08-03 20:00:00 26 11 Norte 24 Noroeste 0 -- -- 66
2017-08-03 19:00:00 27.1 11 Norte 28 Oeste 0 -- -- 62
2017-08-03 18:00:00 27.9 14 Noroeste 28 Noroeste 0 -- -- 57
2017-08-03 17:00:00 28.7 15 Noroeste 30 Noroeste 0 -- -- 49
2017-08-03 16:00:00 29.2 17 Noroeste 29 Noroeste 0 -- -- 50
2017-08-03 15:00:00 29.4 12 Norte 22 Norte 0 -- -- 55
2017-08-03 14:00:00 28.8 8 Noroeste 15 Noroeste 0 -- -- 60
2017-08-03 13:00:00 27.4 6 Sudoeste 12 Sur 0 -- -- 63
2017-08-03 12:00:00 25.3 4 Sudeste 12 Sur 0 -- -- 70
2017-08-03 11:00:00 23.4 5 Nordeste 17 Norte 0 -- -- 73
2017-08-03 10:00:00 21.4 3 Norte 5 Sur 0 -- -- 83
2017-08-03 09:00:00 19.9 0 Calma 4 Sur 0 -- -- 91
2017-08-03 08:00:00 19 0 Calma 5 Noroeste 0 -- -- 94
2017-08-03 07:00:00 19 0 Calma 6 Sudoeste 0 -- -- 94
2017-08-03 06:00:00 19.2 0 Calma 14 Norte 0 -- -- 91
2017-08-03 05:00:00 19.8 8 Norte 13 Norte 0 -- -- 89
2017-08-03 04:00:00 20 0 Calma 6 Sudeste 0 -- -- 86
2017-08-03 03:00:00 20 3 Sudeste 8 Sudeste 0 -- -- 86
2017-08-03 02:00:00 20 3 Noroeste 7 Norte 0 -- -- 87
2017-08-03 01:00:00 20.6 0 Calma 4 Sur 0 -- -- 83
2017-08-03 00:00:00 20.8 0 Calma 4 Sur 0 -- -- 81
2017-08-02 23:00:00 21 3 Norte 11 Norte 0 -- -- 80
2017-08-02 22:00:00 21.3 9 Norte 16 Norte 0 -- -- 80
2017-08-02 21:00:00 21.9 12 Norte 27 Norte 0 -- -- 77
2017-08-02 20:00:00 24 15 Noroeste 30 Norte 0 -- -- 72
2017-08-02 19:00:00 26.3 13 Noroeste 35 Norte 0 -- -- 67
2017-08-02 18:00:00 27.5 16 Noroeste 34 Noroeste 0 -- -- 65
2017-08-02 17:00:00 29.5 18 Norte 34 Noroeste 0 -- -- 59
2017-08-02 16:00:00 30.7 10 Sur 19 Sudeste 0 -- -- 57
2017-08-02 15:00:00 29.8 8 Sur 16 Sur 0 -- -- 60
2017-08-02 14:00:00 28.6 6 Sudeste 15 Sudeste 0 -- -- 61
2017-08-02 13:00:00 26.3 6 Sudeste 13 Sudeste 0 -- -- 65
2017-08-02 12:00:00 24.1 6 Sudeste 13 Este 0 -- -- 70
2017-08-02 11:00:00 21.9 3 Sudeste 10 Sudeste 0 -- -- 75
2017-08-02 10:00:00 19.8 4 Sur 7 Sur 0 -- -- 84
2017-08-02 09:00:00 17.1 0 Calma 5 Sudeste 0 -- -- 94
2017-08-02 08:00:00 16.5 0 Calma 3 Sudeste 0 -- -- 96
2017-08-02 07:00:00 17 0 Calma 3 Este 0 -- -- 95
2017-08-02 06:00:00 17.2 0 Calma 5 Noroeste 0 -- -- 94
2017-08-02 05:00:00 17.3 2 Norte 3 Norte 0 -- -- 93
2017-08-02 04:00:00 17.5 0 Calma 3 Noroeste 0 -- -- 91
2017-08-02 03:00:00 17.8 0 Calma 4 Noroeste 0 -- -- 91
2017-08-02 02:00:00 17.9 0 Calma 3 Noroeste 0 -- -- 90
2017-08-02 01:00:00 18.2 0 Calma 6 Oeste 0 -- -- 88
2017-08-02 00:00:00 18.4 4 Noroeste 9 Norte 0 -- -- 86
2017-08-01 23:00:00 18.7 5 Norte 16 Nordeste 0 -- -- 85
2017-08-01 22:00:00 19 5 Norte 11 Norte 0 -- -- 85
2017-08-01 21:00:00 19.6 0 Calma 13 Norte 0 -- -- 83
2017-08-01 20:00:00 20.1 4 Norte 12 Norte 0 -- -- 81
2017-08-01 19:00:00 20.5 5 Norte 12 Nordeste 0 -- -- 80
2017-08-01 18:00:00 20.7 6 Norte 14 Noroeste 0 -- -- 79
2017-08-01 17:00:00 20.8 6 Noroeste 10 Noroeste 0 -- -- 78
2017-08-01 16:00:00 20.3 6 Norte 15 Norte 0 -- -- 78
2017-08-01 15:00:00 20.5 7 Norte 15 Norte 0 -- -- 80
2017-08-01 14:00:00 20.3 0 Calma 7 Nordeste 0 -- -- 81
2017-08-01 13:00:00 20.5 2 Sudoeste 6 Noroeste 0 -- -- 81
2017-08-01 12:00:00 19.7 3 Noroeste 6 Sur 0 -- -- 87
2017-08-01 11:00:00 18.5 2 Sur 5 Sur 0 -- -- 91
2017-08-01 10:00:00 17.3 0 Calma 6 Sudeste 0 -- -- 99
2017-08-01 09:00:00 16.9 2 Sur 4 Sur 0.2 -- -- 98
2017-08-01 08:00:00 16.7 0 Calma 4 Sur 0.2 -- -- 98
2017-08-01 07:00:00 16.9 0 Calma 2 Sudeste 0 -- -- 97
2017-08-01 06:00:00 17.2 0 Calma 4 Noroeste 0 -- -- 93
2017-08-01 05:00:00 17.3 0 Calma 5 Sudeste 0 -- -- 93
2017-08-01 04:00:00 17.4 0 Calma 6 Norte 0 -- -- 92
2017-08-01 03:00:00 17.2 2 Noroeste 3 Norte 0 -- -- 93
2017-08-01 02:00:00 17.4 0 Calma 5 Este 0 -- -- 91
2017-08-01 01:00:00 17.6 0 Calma 5 Noroeste 0 -- -- 90
2017-08-01 00:00:00 17.8 0 Calma 4 Sudeste 0 -- -- 88
2017-07-31 23:00:00 18 0 Calma 8 Oeste 0 -- -- 86
2017-07-31 22:00:00 18.2 6 Norte 17 Norte 0 -- -- 84
2017-07-31 21:00:00 18.4 6 Norte 18 Noroeste 0 -- -- 84
2017-07-31 20:00:00 18.3 11 Norte 25 Norte 0 -- -- 83
2017-07-31 19:00:00 19.2 7 Norte 21 Norte 0 -- -- 85
2017-07-31 18:00:00 20.1 10 Norte 19 Norte 0 -- -- 80
2017-07-31 17:00:00 20.3 5 Norte 18 Noroeste 0 -- -- 80
2017-07-31 16:00:00 20.3 10 Noroeste 17 Noroeste 0 -- -- 77
2017-07-31 15:00:00 20.1 6 Noroeste 16 Noroeste 0 -- -- 78
2017-07-31 14:00:00 19.9 9 Norte 15 Norte 0 -- -- 80
2017-07-31 13:00:00 19.8 4 Oeste 10 Noroeste 0 -- -- 81
2017-07-31 12:00:00 19.2 3 Noroeste 6 Noroeste 0 -- -- 82
2017-07-31 11:00:00 18.7 2 Noroeste 4 Sur 0 -- -- 85
2017-07-31 10:00:00 17.8 2 Sur 5 Sudeste 0 -- -- 89
2017-07-31 09:00:00 17.1 3 Sudeste 6 Sudeste 0 -- -- 95
2017-07-31 08:00:00 16.6 0 Calma 4 Norte 0 -- -- 97
2017-07-31 07:00:00 16.4 0 Calma 4 Sudeste 0 -- -- 98
2017-07-31 06:00:00 16.4 2 Noroeste 8 Noroeste 0 -- -- 98
2017-07-31 05:00:00 16.4 4 Norte 8 Nordeste 0 -- -- 98
2017-07-31 04:00:00 16.5 0 Calma 3 Noroeste 0 -- -- 97
2017-07-31 03:00:00 16.6 0 Calma 6 Este 0 -- -- 97
2017-07-31 02:00:00 16.7 0 Calma 4 Sudeste 0 -- -- 97
2017-07-31 01:00:00 17 0 Calma 8 Sudeste 0 -- -- 96
2017-07-31 00:00:00 17.4 4 Sudeste 9 Sur 0 -- -- 92
2017-07-30 23:00:00 18.1 3 Sudeste 8 Noroeste 0 -- -- 87
2017-07-30 22:00:00 18.4 2 Noroeste 15 Norte 0 -- -- 82
2017-07-30 21:00:00 18.6 5 Norte 19 Norte 0 -- -- 81
2017-07-30 20:00:00 19.1 8 Norte 27 Norte 0 -- -- 80
2017-07-30 19:00:00 19.3 11 Norte 32 Norte 0 -- -- 82
2017-07-30 18:00:00 20.3 17 Norte 30 Norte 0 -- -- 83
2017-07-30 17:00:00 21.3 17 Norte 30 Norte 0 -- -- 81
2017-07-30 16:00:00 23.3 14 Norte 30 Noroeste 0 -- -- 74
2017-07-30 15:00:00 24.5 14 Norte 30 Norte 0 -- -- 69
2017-07-30 14:00:00 25.1 14 Norte 26 Noroeste 0 -- -- 69
2017-07-30 13:00:00 24.5 8 Norte 15 Noroeste 0 -- -- 71
2017-07-30 12:00:00 24.5 5 Sudeste 15 Este 0 -- -- 66
2017-07-30 11:00:00 22.4 4 Sudeste 9 Sudeste 0 -- -- 72
2017-07-30 10:00:00 19.4 3 Sur 6 Sudeste 0 -- -- 78
2017-07-30 09:00:00 16.2 0 Calma 8 Sudeste 0 -- -- 91
2017-07-30 08:00:00 15 3 Sudeste 6 Norte 0 -- -- 93
2017-07-30 07:00:00 14.5 2 Sudeste 8 Noroeste 0 -- -- 94
2017-07-30 06:00:00 14.4 2 Norte 5 Nordeste 0 -- -- 93
2017-07-30 05:00:00 14.9 0 Calma 5 Noroeste 0 -- -- 90
2017-07-30 04:00:00 15.5 0 Calma 3 Noroeste 0 -- -- 87
2017-07-30 03:00:00 15.9 2 Sudeste 5 Noroeste 0 -- -- 85
2017-07-30 02:00:00 16.7 0 Calma 5 Noroeste 0 -- -- 80
2017-07-30 01:00:00 17.6 0 Calma 8 Noroeste 0 -- -- 74
2017-07-30 00:00:00 18.3 4 Noroeste 10 Noroeste 0 -- -- 69
2017-07-29 23:00:00 20 2 Noroeste 9 Noroeste 0 -- -- 66
2017-07-29 22:00:00 21.7 5 Noroeste 9 Noroeste 0 -- -- 62
2017-07-29 21:00:00 24.5 5 Norte 15 Norte 0 -- -- 49
2017-07-29 20:00:00 27 6 Noroeste 21 Noroeste 0 -- -- 46
2017-07-29 19:00:00 27.9 12 Noroeste 25 Norte 0 -- -- 42
2017-07-29 18:00:00 28.4 12 Noroeste 26 Noroeste 0 -- -- 43
2017-07-29 17:00:00 28.5 14 Norte 29 Noroeste 0 -- -- 52
2017-07-29 16:00:00 29.9 13 Norte 25 Noroeste 0 -- -- 54
2017-07-29 15:00:00 31.2 4 Noroeste 13 Norte 0 -- -- 49
2017-07-29 14:00:00 29.3 4 Norte 12 Sudoeste 0 -- -- 52
2017-07-29 13:00:00 27.2 4 Sudeste 11 Noroeste 0 -- -- 56
2017-07-29 12:00:00 25.8 4 Nordeste 8 Noroeste 0 -- -- 66
2017-07-29 11:00:00 23.2 3 Sur 9 Sudeste 0 -- -- 70
2017-07-29 10:00:00 20.6 5 Sur 9 Sudeste 0 -- -- 84
2017-07-29 09:00:00 18.3 5 Este 8 Sudeste 0 -- -- 91
2017-07-29 08:00:00 18 4 Norte 10 Sudeste 0 -- -- 92
2017-07-29 07:00:00 18 0 Calma 4 Sudeste 0 -- -- 96
2017-07-29 06:00:00 18 2 Sudeste 4 Sudeste 0 -- -- 96
2017-07-29 05:00:00 18.1 2 Noroeste 4 Noroeste 0 -- -- 96
2017-07-29 04:00:00 18.6 2 Sudeste 6 Este 0 -- -- 93
2017-07-29 03:00:00 18.7 3 Noroeste 6 Noroeste 0 -- -- 93
2017-07-29 02:00:00 18.7 0 Calma 5 Norte 0 -- -- 93
2017-07-29 01:00:00 18.6 2 Norte 4 Noroeste 0 -- -- 93
2017-07-29 00:00:00 18.5 0 Calma 6 Norte 0 -- -- 92
2017-07-28 23:00:00 19.2 0 Calma 8 Norte 0 -- -- 90
2017-07-28 22:00:00 20.2 6 Norte 18 Norte 0 -- -- 85
2017-07-28 21:00:00 21.8 11 Noroeste 21 Noroeste 0 -- -- 80
2017-07-28 20:00:00 24.8 9 Noroeste 22 Noroeste 0 -- -- 71
2017-07-28 19:00:00 25.9 13 Norte 27 Noroeste 0 -- -- 68
2017-07-28 18:00:00 26.8 12 Noroeste 28 Noroeste 0 -- -- 68
2017-07-28 17:00:00 26.7 13 Norte 22 Norte 0 -- -- 66
2017-07-28 16:00:00 26.7 9 Sur 21 Norte 0 -- -- 66
2017-07-28 15:00:00 26.2 6 Noroeste 14 Noroeste 0 -- -- 68
2017-07-28 14:00:00 25.1 4 Noroeste 12 Oeste 0 -- -- 69
2017-07-28 13:00:00 22.9 5 Sur 12 Oeste 0 -- -- 76
2017-07-28 12:00:00 20.4 7 Noroeste 15 Norte 0 -- -- 85
2017-07-28 11:00:00 19.5 8 Norte 15 Norte 0 -- -- 89
2017-07-28 10:00:00 19 4 Este 10 Noroeste 0 -- -- 93
2017-07-28 09:00:00 18.6 5 Noroeste 16 Norte 0 -- -- 94
2017-07-28 08:00:00 18.9 9 Norte 14 Norte 0 -- -- 91
2017-07-28 07:00:00 19 5 Noroeste 11 Noroeste 0 -- -- 91
2017-07-28 06:00:00 19.1 4 Noroeste 11 Noroeste 0 -- -- 91
2017-07-28 05:00:00 19.4 6 Norte 15 Norte 0 -- -- 90
2017-07-28 04:00:00 19.7 4 Norte 9 Norte 0 -- -- 91
2017-07-28 03:00:00 19.9 5 Norte 12 Norte 0 -- -- 90
2017-07-28 02:00:00 20.3 2 Nordeste 14 Norte 0 -- -- 87
2017-07-28 01:00:00 20.5 12 Norte 18 Nordeste 0 -- -- 86
2017-07-28 00:00:00 20.7 3 Norte 9 Noroeste 0 -- -- 85
2017-07-27 23:00:00 21.1 3 Noroeste 13 Norte 0 -- -- 83
2017-07-27 22:00:00 21.4 8 Norte 14 Norte 0 -- -- 81
2017-07-27 21:00:00 22.3 8 Norte 24 Norte 0 -- -- 76
2017-07-27 20:00:00 24.9 9 Noroeste 26 Norte 0 -- -- 69
2017-07-27 19:00:00 26.1 10 Norte 27 Noroeste 0 -- -- 61
2017-07-27 18:00:00 26.8 15 Norte 30 Norte 0 -- -- 56
2017-07-27 17:00:00 27.9 17 Noroeste 28 Norte 0 -- -- 54
2017-07-27 16:00:00 29.2 6 Este 18 Noroeste 0 -- -- 50
2017-07-27 15:00:00 28.5 9 Norte 18 Norte 0 -- -- 50
2017-07-27 14:00:00 28.7 6 Sur 15 Oeste 0 -- -- 46
2017-07-27 13:00:00 26.7 4 Noroeste 12 Este 0 -- -- 48
2017-07-27 12:00:00 24.3 4 Sur 9 Sur 0 -- -- 53
2017-07-27 11:00:00 20.8 4 Sur 8 Este 0 -- -- 65
2017-07-27 10:00:00 16.5 0 Calma 5 Sur 0 -- -- 96
2017-07-27 09:00:00 14.5 0 Calma 6 Este 0 -- -- 100
2017-07-27 08:00:00 14 5 Sudeste 8 Este 0 -- -- 100
2017-07-27 07:00:00 14.6 0 Calma 7 Sudeste 0 -- -- 100
2017-07-27 06:00:00 14.8 0 Calma 3 Sudeste 0 -- -- 100
2017-07-27 05:00:00 14.8 0 Calma 5 Sudeste 0 -- -- 100
2017-07-27 04:00:00 15.1 0 Calma 6 Sudeste 0 -- -- 100
2017-07-27 03:00:00 15.2 2 Noroeste 3 Noroeste 0 -- -- 99
2017-07-27 02:00:00 15.5 0 Calma 3 Noroeste 0 -- -- 98
2017-07-27 01:00:00 16.1 0 Calma 5 Noroeste 0 -- -- 96
2017-07-27 00:00:00 17 0 Calma 4 Norte 0 -- -- 94
2017-07-26 23:00:00 18.1 3 Norte 8 Noroeste 0 -- -- 90
2017-07-26 22:00:00 19.8 0 Calma 12 Norte 0 -- -- 84
2017-07-26 21:00:00 22.4 2 Noroeste 18 Noroeste 0 -- -- 73
2017-07-26 20:00:00 24.2 9 Noroeste 21 Norte 0 -- -- 70
2017-07-26 19:00:00 25.5 12 Norte 19 Norte 0 -- -- 63
2017-07-26 18:00:00 26 5 Oeste 14 Oeste 0 -- -- 63
2017-07-26 17:00:00 25 7 Nordeste 18 Sudeste 0 -- -- 63
2017-07-26 16:00:00 25 3 Oeste 15 Sudeste 0 -- -- 66
2017-07-26 15:00:00 25.3 8 Sur 18 Sudeste 0 -- -- 59
2017-07-26 14:00:00 24.2 4 Este 13 Nordeste 0 -- -- 63
2017-07-26 13:00:00 23.2 4 Sudoeste 10 Sudoeste 0 -- -- 66
2017-07-26 12:00:00 20.6 5 Sudoeste 11 Sudeste 0 -- -- 67
2017-07-26 11:00:00 18.8 3 Sudoeste 9 Sudeste 0 -- -- 73
2017-07-26 10:00:00 15.7 3 Sudeste 6 Sudeste 0 -- -- 90
2017-07-26 09:00:00 13.4 5 Sudeste 8 Sudeste 0 -- -- 99
2017-07-26 08:00:00 12.1 0 Calma 5 Noroeste 0 -- -- 100
2017-07-26 07:00:00 12.2 0 Calma 5 Noroeste 0 -- -- 99
2017-07-26 06:00:00 12.6 3 Noroeste 4 Noroeste 0 -- -- 98
2017-07-26 05:00:00 13.5 0 Calma 4 Sudeste 0 -- -- 97
2017-07-26 04:00:00 14.4 0 Calma 12 Noroeste 0 -- -- 94
2017-07-26 03:00:00 14.8 5 Noroeste 9 Norte 0 -- -- 95
2017-07-26 02:00:00 14.8 2 Noroeste 5 Noroeste 0 -- -- 95
2017-07-26 01:00:00 14.6 2 Noroeste 5 Noroeste 0 -- -- 95
2017-07-26 00:00:00 14.5 3 Norte 8 Noroeste 0 -- -- 95
2017-07-25 23:00:00 15.1 4 Norte 8 Norte 0 -- -- 90
2017-07-25 22:00:00 16.5 0 Calma 5 Nordeste 0 -- -- 85
2017-07-25 21:00:00 17.4 5 Norte 17 Norte 0 -- -- 80
2017-07-25 20:00:00 17.7 7 Norte 18 Norte 0 -- -- 78
2017-07-25 19:00:00 18.7 7 Noroeste 19 Norte 0 -- -- 77
2017-07-25 18:00:00 18.4 10 Norte 20 Norte 0 -- -- 78
2017-07-25 17:00:00 19 9 Noroeste 25 Nordeste 0 -- -- 79
2017-07-25 16:00:00 18.1 12 Norte 26 Noroeste 0 -- -- 79
2017-07-25 15:00:00 17.4 5 Norte 28 Noroeste 0 -- -- 84
2017-07-25 14:00:00 17.9 17 Noroeste 28 Noroeste 0 -- -- 79
2017-07-25 13:00:00 17.8 8 Noroeste 26 Norte 0 -- -- 82
2017-07-25 12:00:00 18 10 Norte 20 Nordeste 0 -- -- 77
2017-07-25 11:00:00 16.5 5 Noroeste 15 Norte 0 -- -- 93
2017-07-25 10:00:00 15.7 7 Noroeste 12 Noroeste 0 -- -- 95
2017-07-25 09:00:00 14.7 4 Norte 7 Norte 0 -- -- 100
2017-07-25 08:00:00 14 2 Noroeste 8 Norte 0 -- -- 100
2017-07-25 07:00:00 13.7 5 Norte 10 Norte 0 -- -- 100
2017-07-25 06:00:00 13.5 6 Noroeste 11 Noroeste 0 -- -- 100
2017-07-25 05:00:00 14.4 3 Noroeste 5 Noroeste 0 -- -- 100
2017-07-25 04:00:00 14.8 0 Calma 5 Oeste -- -- -- 99
2017-07-25 03:00:00 14.9 4 Noroeste 8 Noroeste 0 -- -- 99
2017-07-25 02:00:00 15.4 0 Calma 4 Noroeste 0 -- -- 100
2017-07-25 01:00:00 15.4 0 Calma 5 Sudoeste 0 -- -- 99
2017-07-25 00:00:00 15.6 3 Noroeste 12 Noroeste 0.2 -- -- 98
2017-07-24 23:00:00 15.6 2 Noroeste 8 Oeste 0 -- -- 97
2017-07-24 22:00:00 16.2 6 Noroeste 22 Norte 0.2 -- -- 94
2017-07-24 21:00:00 16.8 0 Calma 13 Noroeste 0.4 -- -- 97
2017-07-24 20:00:00 16.9 5 Noroeste 22 Noroeste 0.8 -- -- 96
2017-07-24 19:00:00 17.4 7 Noroeste 19 Noroeste 0.8 -- -- 94
2017-07-24 18:00:00 18.3 8 Norte 20 Norte 0.4 -- -- 92
2017-07-24 17:00:00 18.6 14 Norte 30 Nordeste 0.6 -- -- 91
2017-07-24 16:00:00 18.9 11 Norte 24 Oeste 1 -- -- 91
2017-07-24 15:00:00 19.8 8 Noroeste 24 Norte 0.2 -- -- 90
2017-07-24 14:00:00 19.1 12 Noroeste 24 Noroeste 0.2 -- -- 86
2017-07-24 13:00:00 19.9 5 Noroeste 14 Oeste 0 -- -- 82
2017-07-24 12:00:00 18.5 4 Norte 8 Norte 0.2 -- -- 87
2017-07-24 11:00:00 17.9 4 Sur 11 Noroeste 0.2 -- -- 97
2017-07-24 10:00:00 17.7 8 Noroeste 18 Noroeste 0 -- -- 94
2017-07-24 09:00:00 17.5 6 Noroeste 16 Noroeste 0.2 -- -- 96
2017-07-24 08:00:00 17.1 4 Noroeste 12 Sudoeste 0.4 -- -- 99
2017-07-24 07:00:00 16.9 3 Noroeste 6 Este 0.8 -- -- 99
2017-07-24 06:00:00 16.9 0 Calma 5 Este 0.2 -- -- 99
2017-07-24 05:00:00 16.9 0 Calma 6 Este 0.4 -- -- 98
2017-07-24 04:00:00 17 5 Sudeste 9 Este 0 -- -- 97
2017-07-24 03:00:00 17.4 0 Calma 8 Noroeste 0 -- -- 93
2017-07-24 02:00:00 18.1 2 Norte 8 Norte 0 -- -- 85
2017-07-24 01:00:00 18 3 Norte 5 Norte 0 -- -- 85
2017-07-24 00:00:00 18.1 0 Calma 6 Noroeste 0 -- -- 84
2017-07-23 23:00:00 18.2 2 Norte 6 Nordeste 0 -- -- 82
2017-07-23 22:00:00 18.6 2 Noroeste 11 Norte 0 -- -- 81
2017-07-23 21:00:00 19.8 7 Noroeste 17 Norte 0 -- -- 76
2017-07-23 20:00:00 20.8 8 Norte 21 Noroeste 0 -- -- 73
2017-07-23 19:00:00 22.5 7 Norte 28 Norte 0 -- -- 66
2017-07-23 18:00:00 23.5 13 Norte 26 Norte 0 -- -- 63
2017-07-23 17:00:00 23.8 13 Noroeste 23 Norte 0 -- -- 59
2017-07-23 16:00:00 23.9 8 Noroeste 22 Norte 0 -- -- 57
2017-07-23 15:00:00 23.1 4 Noroeste 22 Este 0 -- -- 58
2017-07-23 14:00:00 22.3 6 Nordeste 16 Norte 0 -- -- 56
2017-07-23 13:00:00 22 6 Oeste 15 Noroeste 0 -- -- 59
2017-07-23 12:00:00 21.5 4 Norte 15 Norte 0 -- -- 59
2017-07-23 11:00:00 19.2 0 Calma 10 Sudeste 0 -- -- 73
2017-07-23 10:00:00 16.7 2 Noroeste 8 Este 0 -- -- 89
2017-07-23 09:00:00 16.8 4 Sudeste 6 Sudeste 0 -- -- 88
2017-07-23 08:00:00 15.4 0 Calma 4 Sudeste 0 -- -- 93
2017-07-23 07:00:00 15 0 Calma 5 Norte 0 -- -- 94
2017-07-23 06:00:00 15.3 3 Norte 5 Norte 0 -- -- 93
2017-07-23 05:00:00 15.8 2 Noroeste 3 Noroeste 0 -- -- 92
2017-07-23 04:00:00 16.1 0 Calma 4 Noroeste 0 -- -- 91
2017-07-23 03:00:00 16.2 3 Norte 4 Noroeste 0 -- -- 91
2017-07-23 02:00:00 16.3 0 Calma 8 Sudeste 0 -- -- 89
2017-07-23 01:00:00 16.6 2 Norte 4 Noroeste 0 -- -- 85
2017-07-23 00:00:00 16.7 3 Norte 14 Norte 0 -- -- 83
2017-07-22 23:00:00 16.7 7 Norte 21 Noroeste 0 -- -- 84
2017-07-22 22:00:00 17.1 11 Noroeste 17 Noroeste 0 -- -- 86
2017-07-22 21:00:00 18.1 5 Norte 23 Noroeste 0 -- -- 83
2017-07-22 20:00:00 18.4 12 Norte 29 Norte 0 -- -- 80
2017-07-22 19:00:00 19.3 17 Norte 31 Norte 0 -- -- 79
2017-07-22 18:00:00 20.7 15 Norte 32 Norte 0 -- -- 73
2017-07-22 17:00:00 22.6 14 Norte 29 Noroeste 0 -- -- 64
2017-07-22 16:00:00 23.9 14 Norte 31 Noroeste 0 -- -- 59
2017-07-22 15:00:00 24.6 10 Norte 26 Norte 0 -- -- 61
2017-07-22 14:00:00 24.5 5 Sur 17 Sur 0 -- -- 58
2017-07-22 13:00:00 23.9 9 Sur 18 Sur 0 -- -- 55
2017-07-22 12:00:00 22 4 Sur 9 Este 0 -- -- 60
2017-07-22 11:00:00 19 3 Sudeste 7 Este 0 -- -- 75
2017-07-22 10:00:00 15.7 2 Sur 6 Sur 0 -- -- 89
2017-07-22 09:00:00 14.4 0 Calma 4 Sudeste 0 -- -- 97
2017-07-22 08:00:00 13.8 0 Calma 8 Este 0 -- -- 97
2017-07-22 07:00:00 13.6 4 Este 8 Este 0 -- -- 96
2017-07-22 06:00:00 13.9 0 Calma 5 Noroeste 0 -- -- 99
2017-07-22 05:00:00 13.8 2 Norte 8 Este 0 -- -- 98
2017-07-22 04:00:00 13.9 0 Calma 3 Este 0 -- -- 99
2017-07-22 03:00:00 13.9 0 Calma 7 Sudeste 0 -- -- 100
2017-07-22 02:00:00 13.8 2 Noroeste 7 Norte 0 -- -- 98
2017-07-22 01:00:00 14.3 0 Calma 4 Este 0 -- -- 97
2017-07-22 00:00:00 15.1 3 Norte 4 Noroeste 0 -- -- 95
2017-07-21 23:00:00 16 0 Calma 5 Noroeste 0 -- -- 93
2017-07-21 22:00:00 16.4 2 Norte 8 Norte 0 -- -- 90
2017-07-21 21:00:00 17.8 2 Noroeste 6 Sudeste 0 -- -- 85
2017-07-21 20:00:00 18.1 3 Sudeste 10 Norte 0 -- -- 83
2017-07-21 19:00:00 18.3 6 Norte 16 Norte 0 -- -- 81
2017-07-21 18:00:00 18 8 Noroeste 19 Norte 0 -- -- 84
2017-07-21 17:00:00 18.7 8 Norte 16 Noroeste 0 -- -- 82
2017-07-21 16:00:00 19.6 7 Norte 17 Norte 0 -- -- 77
2017-07-21 15:00:00 20.2 5 Norte 10 Noroeste 0 -- -- 72
2017-07-21 14:00:00 19.2 3 Noroeste 10 Noroeste 0 -- -- 74
2017-07-21 13:00:00 18.2 4 Noroeste 10 Norte 0 -- -- 77
2017-07-21 12:00:00 17.2 7 Norte 12 Noroeste 0 -- -- 84
2017-07-21 11:00:00 16.9 2 Este 6 Nordeste 0 -- -- 84
2017-07-21 10:00:00 16.1 2 Oeste 5 Noroeste 0 -- -- 92
2017-07-21 09:00:00 15.5 0 Calma 5 Este 0 -- -- 98
2017-07-21 08:00:00 15 0 Calma 5 Noroeste 0 -- -- 99
2017-07-21 07:00:00 14.8 0 Calma 5 Noroeste 0 -- -- 99
2017-07-21 06:00:00 14.9 2 Noroeste 5 Este 0.2 -- -- 98
2017-07-21 05:00:00 15.2 2 Norte 9 Norte 0 -- -- 94
2017-07-21 04:00:00 15.3 6 Norte 12 Norte 0 -- -- 92
2017-07-21 03:00:00 15 5 Noroeste 12 Norte 0 -- -- 94
2017-07-21 02:00:00 15.3 2 Noroeste 3 Norte 0 -- -- 95
2017-07-21 01:00:00 15.5 0 Calma 5 Este 0 -- -- 95
2017-07-21 00:00:00 15.5 3 Nordeste 8 Norte 0 -- -- 92
2017-07-20 23:00:00 15.5 0 Calma 5 Sudeste 0 -- -- 95
2017-07-20 22:00:00 15.6 2 Este 6 Norte 0 -- -- 94
2017-07-20 21:00:00 15.6 3 Este 12 Norte 0 -- -- 93
2017-07-20 20:00:00 16.3 3 Oeste 9 Norte 0 -- -- 89
2017-07-20 19:00:00 17 4 Norte 18 Noroeste 0 -- -- 83
2017-07-20 18:00:00 17.1 9 Noroeste 24 Noroeste 0 -- -- 81
2017-07-20 17:00:00 17.6 10 Noroeste 28 Noroeste 0 -- -- 84
2017-07-20 16:00:00 18.6 12 Norte 23 Norte 0 -- -- 82
2017-07-20 15:00:00 19.3 3 Norte 18 Oeste 0 -- -- 78
2017-07-20 14:00:00 18.6 11 Noroeste 19 Noroeste 0 -- -- 84
2017-07-20 13:00:00 18.7 8 Noroeste 16 Noroeste 0 -- -- 86
2017-07-20 12:00:00 17.8 5 Noroeste 15 Noroeste 0 -- -- 89
2017-07-20 11:00:00 17 6 Noroeste 12 Noroeste 0 -- -- 90
2017-07-20 10:00:00 16.7 8 Noroeste 12 Noroeste 0.2 -- -- 97
2017-07-20 09:00:00 16.5 3 Norte 6 Nordeste 0 -- -- 97
2017-07-20 08:00:00 16.4 0 Calma 4 Este 0 -- -- 99
2017-07-20 07:00:00 16.2 0 Calma 4 Este 0 -- -- 98
2017-07-20 06:00:00 16.2 0 Calma 5 Norte 0 -- -- 98
2017-07-20 05:00:00 16.4 2 Sudoeste 5 Oeste 0.4 -- -- 97
2017-07-20 04:00:00 16.7 2 Sudeste 8 Norte 0 -- -- 96
2017-07-20 03:00:00 17.1 5 Noroeste 17 Norte 0 -- -- 89
2017-07-20 02:00:00 17.5 7 Noroeste 24 Noroeste 0 -- -- 86
2017-07-20 01:00:00 19.3 8 Norte 21 Norte 0 -- -- 83
2017-07-20 00:00:00 19.6 3 Norte 7 Nordeste 0 -- -- 82
2017-07-19 23:00:00 20.2 2 Sudoeste 12 Nordeste 0 -- -- 77
2017-07-19 22:00:00 20.6 3 Norte 13 Norte 0 -- -- 75
2017-07-19 21:00:00 21.3 6 Noroeste 21 Norte 0 -- -- 71
2017-07-19 20:00:00 22.5 6 Noroeste 20 Noroeste 0 -- -- 72
2017-07-19 19:00:00 22.8 7 Norte 17 Noroeste 0 -- -- 71
2017-07-19 18:00:00 22.2 4 Nordeste 14 Norte 0 -- -- 76
2017-07-19 17:00:00 21.8 9 Norte 24 Norte 0 -- -- 80
2017-07-19 16:00:00 22.3 14 Norte 31 Norte 0 -- -- 80
2017-07-19 15:00:00 24.4 15 Norte 30 Norte 0 -- -- 74
2017-07-19 14:00:00 25 10 Norte 23 Norte 0 -- -- 74
2017-07-19 13:00:00 24.4 13 Norte 27 Norte 0 -- -- 72
2017-07-19 12:00:00 24.1 7 Noroeste 20 Norte 0 -- -- 76
2017-07-19 11:00:00 22.3 3 Nordeste 10 Sudoeste 0 -- -- 80
2017-07-19 10:00:00 20.5 3 Sur 17 Nordeste 0 -- -- 87
2017-07-19 09:00:00 18.9 0 Calma 20 Norte 0 -- -- 93
2017-07-19 08:00:00 17.7 3 Sudeste 7 Este 0 -- -- 98
2017-07-19 07:00:00 17.8 2 Norte 8 Norte 0 -- -- 97
2017-07-19 06:00:00 18.4 3 Norte 13 Norte 0 -- -- 95
2017-07-19 05:00:00 18.9 3 Sur 13 Norte 0 -- -- 95
2017-07-19 04:00:00 19 0 Calma 4 Nordeste 0 -- -- 95
2017-07-19 03:00:00 19.1 2 Norte 6 Noroeste 0 -- -- 95
2017-07-19 02:00:00 19.2 2 Noroeste 6 Noroeste 0 -- -- 96
2017-07-19 01:00:00 19.4 0 Calma 6 Nordeste 0 -- -- 95
2017-07-19 00:00:00 19.3 2 Este 21 Noroeste 0 -- -- 94